sensor_id;sensor_type;location;lat;lon;timestamp;pressure;altitude;pressure_sealevel;temperature;humidity
15272;BME280;7737;51.578;7.268;2023-12-20T00:02:09;101002.59;;;8.06;100.00
15272;BME280;7737;51.578;7.268;2023-12-20T00:04:35;101001.69;;;8.07;100.00
15272;BME280;7737;51.578;7.268;2023-12-20T00:07:02;100999.78;;;8.11;100.00
15272;BME280;7737;51.578;7.268;2023-12-20T00:09:29;101014.00;;;8.08;100.00
15272;BME280;7737;51.578;7.268;2023-12-20T00:11:56;101000.00;;;8.05;100.00
15272;BME280;7737;51.578;7.268;2023-12-20T00:14:23;101006.22;;;8.04;100.00
15272;BME280;7737;51.578;7.268;2023-12-20T00:16:49;101007.38;;;7.95;100.00
15272;BME280;7737;51.578;7.268;2023-12-20T00:19:16;101006.59;;;7.93;100.00
15272;BME280;7737;51.578;7.268;2023-12-20T00:21:42;101007.56;;;7.90;100.00
15272;BME280;7737;51.578;7.268;2023-12-20T00:24:09;101000.63;;;7.86;100.00
15272;BME280;7737;51.578;7.268;2023-12-20T00:26:35;101012.13;;;7.85;100.00
15272;BME280;7737;51.578;7.268;2023-12-20T00:29:03;101014.69;;;7.88;100.00
15272;BME280;7737;51.578;7.268;2023-12-20T00:31:29;101028.22;;;7.79;100.00
15272;BME280;7737;51.578;7.268;2023-12-20T00:33:56;101024.97;;;7.71;100.00
15272;BME280;7737;51.578;7.268;2023-12-20T00:36:22;101019.66;;;7.71;100.00
15272;BME280;7737;51.578;7.268;2023-12-20T00:38:49;101029.59;;;7.65;100.00
15272;BME280;7737;51.578;7.268;2023-12-20T00:41:16;101025.91;;;7.69;100.00
15272;BME280;7737;51.578;7.268;2023-12-20T00:43:43;101031.22;;;7.69;100.00
15272;BME280;7737;51.578;7.268;2023-12-20T00:46:11;101035.69;;;7.67;100.00
15272;BME280;7737;51.578;7.268;2023-12-20T00:48:37;101038.50;;;7.62;100.00
15272;BME280;7737;51.578;7.268;2023-12-20T00:51:04;101039.50;;;7.58;100.00
15272;BME280;7737;51.578;7.268;2023-12-20T00:53:30;101049.44;;;7.52;100.00
15272;BME280;7737;51.578;7.268;2023-12-20T00:55:57;101050.97;;;7.57;100.00
15272;BME280;7737;51.578;7.268;2023-12-20T00:58:24;101052.56;;;7.63;100.00
15272;BME280;7737;51.578;7.268;2023-12-20T01:00:51;101043.09;;;7.56;100.00
15272;BME280;7737;51.578;7.268;2023-12-20T01:03:20;101040.41;;;7.57;100.00
15272;BME280;7737;51.578;7.268;2023-12-20T01:05:46;101044.69;;;7.61;100.00
15272;BME280;7737;51.578;7.268;2023-12-20T01:08:13;101034.22;;;7.58;100.00
15272;BME280;7737;51.578;7.268;2023-12-20T01:10:39;101041.44;;;7.53;100.00
15272;BME280;7737;51.578;7.268;2023-12-20T01:13:06;101043.03;;;7.57;100.00
15272;BME280;7737;51.578;7.268;2023-12-20T01:15:34;101042.16;;;7.58;100.00
15272;BME280;7737;51.578;7.268;2023-12-20T01:18:00;101038.53;;;7.61;100.00
15272;BME280;7737;51.578;7.268;2023-12-20T01:20:29;101038.69;;;7.56;100.00
15272;BME280;7737;51.578;7.268;2023-12-20T01:22:55;101037.75;;;7.57;100.00
15272;BME280;7737;51.578;7.268;2023-12-20T01:25:22;101034.22;;;7.58;100.00
15272;BME280;7737;51.578;7.268;2023-12-20T01:27:48;101037.72;;;7.59;100.00
15272;BME280;7737;51.578;7.268;2023-12-20T01:30:15;101033.31;;;7.59;100.00
15272;BME280;7737;51.578;7.268;2023-12-20T01:32:41;101043.91;;;7.58;100.00
15272;BME280;7737;51.578;7.268;2023-12-20T01:35:07;101041.44;;;7.53;100.00
15272;BME280;7737;51.578;7.268;2023-12-20T01:37:35;101031.75;;;7.52;100.00
15272;BME280;7737;51.578;7.268;2023-12-20T01:40:02;101030.22;;;7.45;100.00
15272;BME280;7737;51.578;7.268;2023-12-20T01:42:29;101031.47;;;7.33;100.00
15272;BME280;7737;51.578;7.268;2023-12-20T01:44:55;101030.63;;;7.33;100.00
15272;BME280;7737;51.578;7.268;2023-12-20T01:47:22;101025.44;;;7.30;100.00
15272;BME280;7737;51.578;7.268;2023-12-20T01:49:48;101026.31;;;7.29;100.00
15272;BME280;7737;51.578;7.268;2023-12-20T01:52:15;101034.22;;;7.30;100.00
15272;BME280;7737;51.578;7.268;2023-12-20T01:54:44;101031.44;;;7.35;100.00
15272;BME280;7737;51.578;7.268;2023-12-20T01:57:10;101019.09;;;7.35;100.00
15272;BME280;7737;51.578;7.268;2023-12-20T01:59:39;101018.16;;;7.36;100.00
15272;BME280;7737;51.578;7.268;2023-12-20T02:02:07;101027.09;;;7.32;100.00
15272;BME280;7737;51.578;7.268;2023-12-20T02:04:34;101024.50;;;7.31;100.00
15272;BME280;7737;51.578;7.268;2023-12-20T02:07:01;101019.19;;;7.31;100.00
15272;BME280;7737;51.578;7.268;2023-12-20T02:09:33;101014.03;;;7.28;100.00
15272;BME280;7737;51.578;7.268;2023-12-20T02:12:01;101019.41;;;7.25;100.00
15272;BME280;7737;51.578;7.268;2023-12-20T02:14:27;101019.31;;;7.28;100.00
15272;BME280;7737;51.578;7.268;2023-12-20T02:16:54;101012.38;;;7.24;100.00
15272;BME280;7737;51.578;7.268;2023-12-20T02:19:20;101015.94;;;7.23;100.00
15272;BME280;7737;51.578;7.268;2023-12-20T02:21:48;101020.22;;;7.27;100.00
15272;BME280;7737;51.578;7.268;2023-12-20T02:24:15;101013.28;;;7.23;100.00
15272;BME280;7737;51.578;7.268;2023-12-20T02:26:43;101012.56;;;7.18;100.00
15272;BME280;7737;51.578;7.268;2023-12-20T02:29:09;101012.56;;;7.18;100.00
15272;BME280;7737;51.578;7.268;2023-12-20T02:31:36;101010.78;;;7.20;100.00
15272;BME280;7737;51.578;7.268;2023-12-20T02:34:02;101005.47;;;7.20;100.00
15272;BME280;7737;51.578;7.268;2023-12-20T02:36:29;101008.94;;;7.22;100.00
15272;BME280;7737;51.578;7.268;2023-12-20T02:38:56;101012.53;;;7.19;100.00
15272;BME280;7737;51.578;7.268;2023-12-20T02:41:23;101007.28;;;7.18;100.00
15272;BME280;7737;51.578;7.268;2023-12-20T02:43:49;101012.56;;;7.18;100.00
15272;BME280;7737;51.578;7.268;2023-12-20T02:46:17;101005.47;;;7.20;100.00
15272;BME280;7737;51.578;7.268;2023-12-20T02:48:44;101002.06;;;7.16;100.00
15272;BME280;7737;51.578;7.268;2023-12-20T02:51:12;100996.78;;;7.15;100.00
15272;BME280;7737;51.578;7.268;2023-12-20T02:53:38;101006.44;;;7.17;100.00
15272;BME280;7737;51.578;7.268;2023-12-20T02:56:06;101003.81;;;7.16;100.00
15272;BME280;7737;51.578;7.268;2023-12-20T02:58:33;101009.13;;;7.16;100.00
15272;BME280;7737;51.578;7.268;2023-12-20T03:00:59;100996.91;;;7.12;100.00
15272;BME280;7737;51.578;7.268;2023-12-20T03:03:26;101000.47;;;7.11;100.00
15272;BME280;7737;51.578;7.268;2023-12-20T03:05:52;101001.59;;;7.02;100.00
15272;BME280;7737;51.578;7.268;2023-12-20T03:08:19;101000.56;;;7.08;100.00
15272;BME280;7737;51.578;7.268;2023-12-20T03:10:45;101001.38;;;7.10;100.00
15272;BME280;7737;51.578;7.268;2023-12-20T03:13:13;100992.47;;;7.12;100.00
15272;BME280;7737;51.578;7.268;2023-12-20T03:15:40;100989.94;;;7.09;100.00
15272;BME280;7737;51.578;7.268;2023-12-20T03:18:06;100988.28;;;7.07;100.00
15272;BME280;7737;51.578;7.268;2023-12-20T03:20:33;100985.75;;;7.02;100.00
15272;BME280;7737;51.578;7.268;2023-12-20T03:22:59;100988.34;;;7.04;100.00
15272;BME280;7737;51.578;7.268;2023-12-20T03:25:26;100978.88;;;6.97;100.00
15272;BME280;7737;51.578;7.268;2023-12-20T03:27:53;100979.81;;;6.96;100.00
15272;BME280;7737;51.578;7.268;2023-12-20T03:30:20;100989.75;;;6.86;100.00
15272;BME280;7737;51.578;7.268;2023-12-20T03:32:47;100994.22;;;6.84;100.00
15272;BME280;7737;51.578;7.268;2023-12-20T03:35:14;100987.19;;;6.85;100.00
15272;BME280;7737;51.578;7.268;2023-12-20T03:37:40;100979.28;;;6.83;100.00
15272;BME280;7737;51.578;7.268;2023-12-20T03:40:07;100972.06;;;6.90;100.00
15272;BME280;7737;51.578;7.268;2023-12-20T03:42:34;100976.78;;;6.79;100.00
15272;BME280;7737;51.578;7.268;2023-12-20T03:45:00;100973.25;;;6.80;100.00
15272;BME280;7737;51.578;7.268;2023-12-20T03:47:28;100963.75;;;6.72;100.00
15272;BME280;7737;51.578;7.268;2023-12-20T03:49:55;100973.50;;;6.70;100.00
15272;BME280;7737;51.578;7.268;2023-12-20T03:52:21;100978.88;;;6.67;100.00
15272;BME280;7737;51.578;7.268;2023-12-20T03:54:48;100971.91;;;6.65;100.00
15272;BME280;7737;51.578;7.268;2023-12-20T03:57:14;100975.34;;;6.68;100.00
15272;BME280;7737;51.578;7.268;2023-12-20T03:59:40;100966.59;;;6.66;100.00
15272;BME280;7737;51.578;7.268;2023-12-20T04:02:07;100970.13;;;6.65;100.00
15272;BME280;7737;51.578;7.268;2023-12-20T04:04:35;100963.16;;;6.64;100.00
15272;BME280;7737;51.578;7.268;2023-12-20T04:07:01;100963.97;;;6.65;100.00
15272;BME280;7737;51.578;7.268;2023-12-20T04:09:28;100962.28;;;6.64;100.00
15272;BME280;7737;51.578;7.268;2023-12-20T04:11:54;100961.44;;;6.62;100.00
15272;BME280;7737;51.578;7.268;2023-12-20T04:14:21;100963.16;;;6.63;100.00
15272;BME280;7737;51.578;7.268;2023-12-20T04:16:47;100969.47;;;6.59;100.00
15272;BME280;7737;51.578;7.268;2023-12-20T04:19:14;100962.63;;;6.52;100.00
15272;BME280;7737;51.578;7.268;2023-12-20T04:21:42;100958.94;;;6.57;100.00
15272;BME280;7737;51.578;7.268;2023-12-20T04:24:08;100947.69;;;6.51;100.00
15272;BME280;7737;51.578;7.268;2023-12-20T04:26:35;100948.44;;;6.54;100.00
15272;BME280;7737;51.578;7.268;2023-12-20T04:29:01;100946.66;;;6.56;100.00
15272;BME280;7737;51.578;7.268;2023-12-20T04:31:28;100939.63;;;6.55;100.00
15272;BME280;7737;51.578;7.268;2023-12-20T04:33:54;100945.88;;;6.53;100.00
15272;BME280;7737;51.578;7.268;2023-12-20T04:36:21;100952.91;;;6.52;100.00
15272;BME280;7737;51.578;7.268;2023-12-20T04:38:49;100955.47;;;6.55;100.00
15272;BME280;7737;51.578;7.268;2023-12-20T04:41:15;100955.41;;;6.57;100.00
15272;BME280;7737;51.578;7.268;2023-12-20T04:43:43;100956.25;;;6.59;100.00
15272;BME280;7737;51.578;7.268;2023-12-20T04:46:10;100947.47;;;6.58;100.00
15272;BME280;7737;51.578;7.268;2023-12-20T04:48:36;100964.94;;;6.62;100.00
15272;BME280;7737;51.578;7.268;2023-12-20T04:51:03;100959.72;;;6.61;100.00
15272;BME280;7737;51.578;7.268;2023-12-20T04:53:31;100959.75;;;6.59;100.00
15272;BME280;7737;51.578;7.268;2023-12-20T04:55:59;100954.38;;;6.62;100.00
15272;BME280;7737;51.578;7.268;2023-12-20T04:58:25;100957.84;;;6.64;100.00
15272;BME280;7737;51.578;7.268;2023-12-20T05:00:52;100950.84;;;6.63;100.00
15272;BME280;7737;51.578;7.268;2023-12-20T05:03:18;100956.13;;;6.63;100.00
15272;BME280;7737;51.578;7.268;2023-12-20T05:05:45;100952.75;;;6.58;100.00
15272;BME280;7737;51.578;7.268;2023-12-20T05:08:11;100947.56;;;6.55;100.00
15272;BME280;7737;51.578;7.268;2023-12-20T05:10:38;100956.47;;;6.51;100.00
15272;BME280;7737;51.578;7.268;2023-12-20T05:13:06;100954.84;;;6.47;100.00
15272;BME280;7737;51.578;7.268;2023-12-20T05:15:34;100959.22;;;6.48;100.00
15272;BME280;7737;51.578;7.268;2023-12-20T05:18:00;100953.88;;;6.50;100.00
15272;BME280;7737;51.578;7.268;2023-12-20T05:20:27;100960.13;;;6.47;100.00
15272;BME280;7737;51.578;7.268;2023-12-20T05:22:53;100957.56;;;6.44;100.00
15272;BME280;7737;51.578;7.268;2023-12-20T05:25:20;100953.09;;;6.46;100.00
15272;BME280;7737;51.578;7.268;2023-12-20T05:27:46;100953.09;;;6.46;100.00
15272;BME280;7737;51.578;7.268;2023-12-20T05:30:14;100946.00;;;6.48;100.00
15272;BME280;7737;51.578;7.268;2023-12-20T05:32:41;100949.63;;;6.44;100.00
15272;BME280;7737;51.578;7.268;2023-12-20T05:35:07;100938.13;;;6.47;100.00
15272;BME280;7737;51.578;7.268;2023-12-20T05:37:34;100949.59;;;6.46;100.00
15272;BME280;7737;51.578;7.268;2023-12-20T05:40:00;100939.00;;;6.47;100.00
15272;BME280;7737;51.578;7.268;2023-12-20T05:42:27;100939.00;;;6.47;100.00
15272;BME280;7737;51.578;7.268;2023-12-20T05:44:54;100934.44;;;6.52;100.00
15272;BME280;7737;51.578;7.268;2023-12-20T05:47:22;100930.06;;;6.51;100.00
15272;BME280;7737;51.578;7.268;2023-12-20T05:49:48;100933.53;;;6.53;100.00
15272;BME280;7737;51.578;7.268;2023-12-20T05:52:15;100934.34;;;6.55;100.00
15272;BME280;7737;51.578;7.268;2023-12-20T05:54:42;100938.72;;;6.56;100.00
15272;BME280;7737;51.578;7.268;2023-12-20T05:57:08;100943.91;;;6.59;100.00
15272;BME280;7737;51.578;7.268;2023-12-20T05:59:35;100937.81;;;6.57;100.00
15272;BME280;7737;51.578;7.268;2023-12-20T06:02:03;100947.47;;;6.58;100.00
15272;BME280;7737;51.578;7.268;2023-12-20T06:04:31;100948.38;;;6.57;100.00
15272;BME280;7737;51.578;7.268;2023-12-20T06:06:57;100952.75;;;6.58;100.00
15272;BME280;7737;51.578;7.268;2023-12-20T06:09:24;100951.88;;;6.58;100.00
15272;BME280;7737;51.578;7.268;2023-12-20T06:11:51;100936.09;;;6.56;100.00
15272;BME280;7737;51.578;7.268;2023-12-20T06:14:17;100943.16;;;6.56;100.00
15272;BME280;7737;51.578;7.268;2023-12-20T06:16:45;100947.47;;;6.58;100.00
15272;BME280;7737;51.578;7.268;2023-12-20T06:19:11;100948.34;;;6.59;100.00
15272;BME280;7737;51.578;7.268;2023-12-20T06:21:39;100948.34;;;6.59;100.00
15272;BME280;7737;51.578;7.268;2023-12-20T06:24:06;100945.72;;;6.57;100.00
15272;BME280;7737;51.578;7.268;2023-12-20T06:26:32;100945.72;;;6.57;100.00
15272;BME280;7737;51.578;7.268;2023-12-20T06:28:59;100947.47;;;6.58;100.00
15272;BME280;7737;51.578;7.268;2023-12-20T06:31:25;100938.66;;;6.58;100.00
15272;BME280;7737;51.578;7.268;2023-12-20T06:33:52;100936.91;;;6.58;100.00
15272;BME280;7737;51.578;7.268;2023-12-20T06:36:22;100928.91;;;6.60;100.00
15272;BME280;7737;51.578;7.268;2023-12-20T06:38:50;100935.97;;;6.59;100.00
15272;BME280;7737;51.578;7.268;2023-12-20T06:41:17;100946.44;;;6.62;100.00
15272;BME280;7737;51.578;7.268;2023-12-20T06:43:43;100949.09;;;6.62;100.00
15272;BME280;7737;51.578;7.268;2023-12-20T06:46:10;100966.72;;;6.62;100.00
15272;BME280;7737;51.578;7.268;2023-12-20T06:48:38;100965.72;;;6.66;100.00
15272;BME280;7737;51.578;7.268;2023-12-20T06:51:05;100954.38;;;6.62;100.00
15272;BME280;7737;51.578;7.268;2023-12-20T06:53:32;100955.22;;;6.64;100.00
15272;BME280;7737;51.578;7.268;2023-12-20T06:55:59;100950.78;;;6.65;100.00
15272;BME280;7737;51.578;7.268;2023-12-20T06:58:26;100936.72;;;6.64;100.00
15272;BME280;7737;51.578;7.268;2023-12-20T07:00:52;100942.81;;;6.66;100.00
15272;BME280;7737;51.578;7.268;2023-12-20T07:03:19;100944.66;;;6.64;100.00
15272;BME280;7737;51.578;7.268;2023-12-20T07:05:45;100957.75;;;6.67;100.00
15272;BME280;7737;51.578;7.268;2023-12-20T07:08:12;100944.53;;;6.67;100.00
15272;BME280;7737;51.578;7.268;2023-12-20T07:10:40;100934.91;;;6.66;100.00
15272;BME280;7737;51.578;7.268;2023-12-20T07:13:08;100940.94;;;6.70;100.00
15272;BME280;7737;51.578;7.268;2023-12-20T07:15:35;100939.97;;;6.72;100.00
15272;BME280;7737;51.578;7.268;2023-12-20T07:18:02;100938.25;;;6.71;100.00
15272;BME280;7737;51.578;7.268;2023-12-20T07:20:29;100929.41;;;6.72;100.00
15272;BME280;7737;51.578;7.268;2023-12-20T07:22:55;100931.16;;;6.73;100.00
15272;BME280;7737;51.578;7.268;2023-12-20T07:25:21;100945.16;;;6.75;100.00
15272;BME280;7737;51.578;7.268;2023-12-20T07:27:48;100942.53;;;6.75;100.00
15272;BME280;7737;51.578;7.268;2023-12-20T07:30:16;100954.03;;;6.74;100.00
15272;BME280;7737;51.578;7.268;2023-12-20T07:32:42;100951.31;;;6.76;100.00
15272;BME280;7737;51.578;7.268;2023-12-20T07:35:09;100953.94;;;6.78;100.00
15272;BME280;7737;51.578;7.268;2023-12-20T07:37:36;100953.94;;;6.78;100.00
15272;BME280;7737;51.578;7.268;2023-12-20T07:40:03;100950.38;;;6.79;100.00
15272;BME280;7737;51.578;7.268;2023-12-20T07:42:29;100952.09;;;6.80;100.00
15272;BME280;7737;51.578;7.268;2023-12-20T07:44:56;100952.06;;;6.81;100.00
15272;BME280;7737;51.578;7.268;2023-12-20T07:47:24;100959.00;;;6.84;100.00
15272;BME280;7737;51.578;7.268;2023-12-20T07:49:50;100948.44;;;6.84;100.00
15272;BME280;7737;51.578;7.268;2023-12-20T07:52:18;100951.94;;;6.86;100.00
15272;BME280;7737;51.578;7.268;2023-12-20T07:54:45;100964.22;;;6.87;100.00
15272;BME280;7737;51.578;7.268;2023-12-20T07:57:11;100951.00;;;6.87;100.00
15272;BME280;7737;51.578;7.268;2023-12-20T07:59:38;100960.66;;;6.88;100.00
15272;BME280;7737;51.578;7.268;2023-12-20T08:02:04;100965.94;;;6.88;100.00
15272;BME280;7737;51.578;7.268;2023-12-20T08:04:33;100959.72;;;6.90;100.00
15272;BME280;7737;51.578;7.268;2023-12-20T08:06:59;100949.13;;;6.90;100.00
15272;BME280;7737;51.578;7.268;2023-12-20T08:09:26;100942.91;;;6.93;100.00
15272;BME280;7737;51.578;7.268;2023-12-20T08:11:53;100941.97;;;6.94;100.00
15272;BME280;7737;51.578;7.268;2023-12-20T08:14:19;100953.38;;;6.96;100.00
15272;BME280;7737;51.578;7.268;2023-12-20T08:16:46;100950.66;;;6.97;100.00
15272;BME280;7737;51.578;7.268;2023-12-20T08:19:12;100945.28;;;7.00;100.00
15272;BME280;7737;51.578;7.268;2023-12-20T08:21:40;100932.13;;;6.99;100.00
15272;BME280;7737;51.578;7.268;2023-12-20T08:24:08;100950.56;;;7.00;100.00
15272;BME280;7737;51.578;7.268;2023-12-20T08:26:34;100943.53;;;7.01;100.00
15272;BME280;7737;51.578;7.268;2023-12-20T08:29:01;100948.72;;;7.04;100.00
15272;BME280;7737;51.578;7.268;2023-12-20T08:31:27;100948.75;;;7.02;100.00
15272;BME280;7737;51.578;7.268;2023-12-20T08:33:54;100943.44;;;7.04;100.00
15272;BME280;7737;51.578;7.268;2023-12-20T08:36:21;100949.53;;;7.06;100.00
15272;BME280;7737;51.578;7.268;2023-12-20T08:38:49;100947.78;;;7.05;100.00
15272;BME280;7737;51.578;7.268;2023-12-20T08:41:17;100940.63;;;7.08;100.00
15272;BME280;7737;51.578;7.268;2023-12-20T08:43:43;100949.44;;;7.09;100.00
15272;BME280;7737;51.578;7.268;2023-12-20T08:46:10;100949.38;;;7.10;100.00
15272;BME280;7737;51.578;7.268;2023-12-20T08:48:36;100963.41;;;7.12;100.00
15272;BME280;7737;51.578;7.268;2023-12-20T08:51:03;100947.50;;;7.14;100.00
15272;BME280;7737;51.578;7.268;2023-12-20T08:53:32;100945.75;;;7.13;100.00
15272;BME280;7737;51.578;7.268;2023-12-20T08:56:00;100943.13;;;7.13;100.00
15272;BME280;7737;51.578;7.268;2023-12-20T08:58:27;100946.63;;;7.13;100.00
15272;BME280;7737;51.578;7.268;2023-12-20T09:00:53;100936.94;;;7.14;100.00
15272;BME280;7737;51.578;7.268;2023-12-20T09:03:20;100941.28;;;7.15;100.00
15272;BME280;7737;51.578;7.268;2023-12-20T09:05:46;100942.22;;;7.14;100.00
15272;BME280;7737;51.578;7.268;2023-12-20T09:08:13;100941.19;;;7.18;100.00
15272;BME280;7737;51.578;7.268;2023-12-20T09:10:39;100935.00;;;7.19;100.00
15272;BME280;7737;51.578;7.268;2023-12-20T09:13:07;100933.16;;;7.21;100.00
15272;BME280;7737;51.578;7.268;2023-12-20T09:15:34;100934.09;;;7.20;100.00
15272;BME280;7737;51.578;7.268;2023-12-20T09:18:01;100930.53;;;7.21;100.00
15272;BME280;7737;51.578;7.268;2023-12-20T09:20:28;100931.31;;;7.23;100.00
15272;BME280;7737;51.578;7.268;2023-12-20T09:22:54;100925.22;;;7.21;100.00
15272;BME280;7737;51.578;7.268;2023-12-20T09:25:21;100926.03;;;7.23;100.00
15272;BME280;7737;51.578;7.268;2023-12-20T09:27:48;100926.91;;;7.23;100.00
15272;BME280;7737;51.578;7.268;2023-12-20T09:30:16;100924.13;;;7.28;100.00
15272;BME280;7737;51.578;7.268;2023-12-20T09:32:42;100918.84;;;7.28;100.00
15272;BME280;7737;51.578;7.268;2023-12-20T09:35:09;100928.56;;;7.27;100.00
15272;BME280;7737;51.578;7.268;2023-12-20T09:37:35;100925.91;;;7.27;100.00
15272;BME280;7737;51.578;7.268;2023-12-20T09:40:02;100925.84;;;7.29;100.00
15272;BME280;7737;51.578;7.268;2023-12-20T09:42:34;100920.47;;;7.32;100.00
15272;BME280;7737;51.578;7.268;2023-12-20T09:45:08;100909.78;;;7.35;100.00
15272;BME280;7737;51.578;7.268;2023-12-20T09:47:36;100915.94;;;7.35;100.00
15272;BME280;7737;51.578;7.268;2023-12-20T09:50:03;100911.56;;;7.34;100.00
15272;BME280;7737;51.578;7.268;2023-12-20T09:52:30;100913.31;;;7.35;100.00
15272;BME280;7737;51.578;7.268;2023-12-20T09:54:57;100908.03;;;7.35;100.00
15272;BME280;7737;51.578;7.268;2023-12-20T09:57:24;100916.91;;;7.33;100.00
15272;BME280;7737;51.578;7.268;2023-12-20T09:59:51;100912.44;;;7.35;100.00
15272;BME280;7737;51.578;7.268;2023-12-20T10:02:19;100916.84;;;7.34;100.00
15272;BME280;7737;51.578;7.268;2023-12-20T10:04:49;100913.25;;;7.37;100.00
15272;BME280;7737;51.578;7.268;2023-12-20T10:07:15;100920.38;;;7.35;100.00
15272;BME280;7737;51.578;7.268;2023-12-20T10:09:42;100914.97;;;7.38;100.00
15272;BME280;7737;51.578;7.268;2023-12-20T10:12:09;100912.34;;;7.38;100.00
15272;BME280;7737;51.578;7.268;2023-12-20T10:14:35;100920.19;;;7.41;100.00
15272;BME280;7737;51.578;7.268;2023-12-20T10:17:03;100909.47;;;7.44;100.00
15272;BME280;7737;51.578;7.268;2023-12-20T10:19:29;100916.50;;;7.45;100.00
15272;BME280;7737;51.578;7.268;2023-12-20T10:21:57;100908.72;;;7.41;100.00
15272;BME280;7737;51.578;7.268;2023-12-20T10:24:25;100909.69;;;7.38;100.00
15272;BME280;7737;51.578;7.268;2023-12-20T10:27:01;100902.03;;;7.30;100.00
15272;BME280;7737;51.578;7.268;2023-12-20T10:29:31;100900.19;;;7.32;100.00
15272;BME280;7737;51.578;7.268;2023-12-20T10:31:58;100901.06;;;7.33;100.00
15272;BME280;7737;51.578;7.268;2023-12-20T10:34:25;100909.03;;;7.31;100.00
15272;BME280;7737;51.578;7.268;2023-12-20T10:36:51;100895.75;;;7.33;100.00
15272;BME280;7737;51.578;7.268;2023-12-20T10:39:20;100904.50;;;7.35;100.00
15272;BME280;7737;51.578;7.268;2023-12-20T10:41:47;100897.28;;;7.40;100.00
15272;BME280;7737;51.578;7.268;2023-12-20T10:44:14;100902.63;;;7.39;100.00
15272;BME280;7737;51.578;7.268;2023-12-20T10:46:41;100901.66;;;7.41;100.00
15272;BME280;7737;51.578;7.268;2023-12-20T10:49:15;100889.19;;;7.45;100.00
15272;BME280;7737;51.578;7.268;2023-12-20T10:51:44;100900.69;;;7.44;100.00
15272;BME280;7737;51.578;7.268;2023-12-20T10:54:12;100886.53;;;7.45;100.00
15272;BME280;7737;51.578;7.268;2023-12-20T10:56:40;100886.50;;;7.46;100.00
15272;BME280;7737;51.578;7.268;2023-12-20T10:59:07;100894.28;;;7.51;100.00
15272;BME280;7737;51.578;7.268;2023-12-20T11:01:38;100890.66;;;7.53;100.00
15272;BME280;7737;51.578;7.268;2023-12-20T11:04:08;100884.56;;;7.51;100.00
15272;BME280;7737;51.578;7.268;2023-12-20T11:06:41;100898.69;;;7.50;100.00
15272;BME280;7737;51.578;7.268;2023-12-20T11:09:14;100891.34;;;7.58;100.00
15272;BME280;7737;51.578;7.268;2023-12-20T11:11:56;100896.53;;;7.61;100.00
15272;BME280;7737;51.578;7.268;2023-12-20T11:17:11;100878.84;;;7.63;100.00
15272;BME280;7737;51.578;7.268;2023-12-20T11:20:04;100875.22;;;7.66;100.00
15272;BME280;7737;51.578;7.268;2023-12-20T11:22:32;100883.81;;;7.72;100.00
15272;BME280;7737;51.578;7.268;2023-12-20T11:25:03;100882.06;;;7.71;100.00
15272;BME280;7737;51.578;7.268;2023-12-20T11:27:32;100881.97;;;7.74;100.00
15272;BME280;7737;51.578;7.268;2023-12-20T11:29:58;100874.09;;;7.73;100.00
15272;BME280;7737;51.578;7.268;2023-12-20T11:32:29;100870.50;;;7.74;100.00
15272;BME280;7737;51.578;7.268;2023-12-20T11:34:57;100870.41;;;7.77;100.00
15272;BME280;7737;51.578;7.268;2023-12-20T11:37:28;100864.34;;;7.73;100.00
15272;BME280;7737;51.578;7.268;2023-12-20T11:40:00;100870.41;;;7.77;100.00
15272;BME280;7737;51.578;7.268;2023-12-20T11:42:28;100875.78;;;7.75;100.00
15272;BME280;7737;51.578;7.268;2023-12-20T11:44:55;100873.34;;;7.69;100.00
15272;BME280;7737;51.578;7.268;2023-12-20T11:47:22;100871.59;;;7.68;100.00
15272;BME280;7737;51.578;7.268;2023-12-20T11:49:49;100866.56;;;7.61;100.00
15272;BME280;7737;51.578;7.268;2023-12-20T11:52:16;100862.22;;;7.60;100.00
15272;BME280;7737;51.578;7.268;2023-12-20T11:54:43;100866.84;;;7.53;100.00
15272;BME280;7737;51.578;7.268;2023-12-20T11:57:09;100870.41;;;7.52;100.00
15272;BME280;7737;51.578;7.268;2023-12-20T11:59:36;100852.72;;;7.54;100.00
15272;BME280;7737;51.578;7.268;2023-12-20T12:02:04;100860.75;;;7.51;100.00
15272;BME280;7737;51.578;7.268;2023-12-20T12:04:30;100863.28;;;7.54;100.00
15272;BME280;7737;51.578;7.268;2023-12-20T12:06:57;100856.47;;;7.47;100.00
15272;BME280;7737;51.578;7.268;2023-12-20T12:09:23;100850.31;;;7.47;100.00
15272;BME280;7737;51.578;7.268;2023-12-20T12:11:50;100845.88;;;7.47;100.00
15272;BME280;7737;51.578;7.268;2023-12-20T12:14:16;100849.47;;;7.46;100.00
15272;BME280;7737;51.578;7.268;2023-12-20T12:16:44;100844.13;;;7.48;100.00
15272;BME280;7737;51.578;7.268;2023-12-20T12:19:21;100830.84;;;7.49;100.00
15272;BME280;7737;51.578;7.268;2023-12-20T12:21:49;100824.84;;;7.44;100.00
15272;BME280;7737;51.578;7.268;2023-12-20T12:24:19;100826.50;;;7.47;100.00
15272;BME280;7737;51.578;7.268;2023-12-20T12:26:49;100832.72;;;7.46;100.00
15272;BME280;7737;51.578;7.268;2023-12-20T12:29:16;100834.41;;;7.48;100.00
15272;BME280;7737;51.578;7.268;2023-12-20T12:31:43;100828.31;;;7.46;100.00
15272;BME280;7737;51.578;7.268;2023-12-20T12:34:09;100835.31;;;7.47;100.00
15272;BME280;7737;51.578;7.268;2023-12-20T12:36:37;100834.31;;;7.51;100.00
15272;BME280;7737;51.578;7.268;2023-12-20T12:39:04;100829.91;;;7.50;100.00
15272;BME280;7737;51.578;7.268;2023-12-20T12:41:31;100827.28;;;7.50;100.00
15272;BME280;7737;51.578;7.268;2023-12-20T12:43:57;100821.88;;;7.53;100.00
15272;BME280;7737;51.578;7.268;2023-12-20T12:46:24;100814.81;;;7.54;100.00
15272;BME280;7737;51.578;7.268;2023-12-20T12:48:50;100813.84;;;7.56;100.00
15272;BME280;7737;51.578;7.268;2023-12-20T12:51:17;100806.00;;;7.53;100.00
15272;BME280;7737;51.578;7.268;2023-12-20T12:53:45;100809.31;;;7.60;100.00
15272;BME280;7737;51.578;7.268;2023-12-20T12:56:12;100800.41;;;7.62;100.00
15272;BME280;7737;51.578;7.268;2023-12-20T12:58:39;100811.03;;;7.61;100.00
15272;BME280;7737;51.578;7.268;2023-12-20T13:01:05;100802.22;;;7.60;100.00
15272;BME280;7737;51.578;7.268;2023-12-20T17:33:58;100628.75;;;7.76;100.00